Wetterdaten: April 2011
Datum Temp Feuchte Luftdruck Regen Wind Richtung Sonnenschein UV Solar Windben
01.04.2011 12,0 C 91 % 1021,0 hPa 0,0 l/m 4,3 km/h W-SW 0,67 h 1,6 UV-I 132 W/m 11,3 km/h
02.04.2011 13,1 C 77 % 1015,1 hPa 0,2 l/m 5,8 km/h S-SO 9,92 h 2,8 UV-I 399 W/m 10,1 km/h
03.04.2011 10,9 C 92 % 1012,1 hPa 14,2 l/m 1,8 km/h S 0,08 h 1,3 UV-I 108 W/m 4,4 km/h
04.04.2011 7,7 C 93 % 1020,4 hPa 4,6 l/m 2,2 km/h W 1,58 h 1,3 UV-I 133 W/m 5,2 km/h
05.04.2011 8,6 C 75 % 1024,2 hPa 0,0 l/m 12,5 km/h S-SW 3,33 h 1,6 UV-I 201 W/m 21,7 km/h
06.04.2011 12,5 C 90 % 1026,1 hPa 0,0 l/m 4,4 km/h SW 4,42 h 1,8 UV-I 212 W/m 12,9 km/h
07.04.2011 12,4 C 76 % 1022,3 hPa 0,0 l/m 10,4 km/h N-NW 5,92 h 2,3 UV-I 265 W/m 23,0 km/h
08.04.2011 9,4 C 75 % 1022,5 hPa 0,0 l/m 13,0 km/h N-NW 9,92 h 2,8 UV-I 398 W/m 29,8 km/h
09.04.2011 8,4 C 78 % 1023,6 hPa 0,0 l/m 4,9 km/h N-NW 9,00 h 2,9 UV-I 388 W/m 10,4 km/h
10.04.2011 8,7 C 71 % 1024,5 hPa 0,0 l/m 0,4 km/h N-NO 11,25 h 3,0 UV-I 424 W/m 2,8 km/h
11.04.2011 13,9 C 64 % 1017,5 hPa 0,0 l/m 2,6 km/h S 10,00 h 2,3 UV-I 353 W/m 8,0 km/h
12.04.2011 6,9 C 75 % 1019,5 hPa 4,0 l/m 12,3 km/h N-NW 2,42 h 1,5 UV-I 184 W/m 23,3 km/h
13.04.2011 7,1 C 72 % 1019,2 hPa 0,0 l/m 10,1 km/h N-NW 1,83 h 1,8 UV-I 212 W/m 19,3 km/h
14.04.2011 4,9 C 79 % 1019,4 hPa 0,0 l/m 1,2 km/h N-NO 4,67 h 1,8 UV-I 264 W/m 2,4 km/h
15.04.2011 6,4 C 72 % 1021,7 hPa 0,0 l/m 1,3 km/h SO 8,33 h 2,6 UV-I 399 W/m 5,2 km/h
16.04.2011 8,4 C 72 % 1023,3 hPa 0,0 l/m 1,1 km/h S 2,17 h 1,9 UV-I 207 W/m 2,4 km/h
17.04.2011 9,8 C 65 % 1024,9 hPa 0,0 l/m 1,5 km/h S-SO 5,50 h 2,6 UV-I 330 W/m 4,4 km/h
18.04.2011 10,3 C 63 % 1020,8 hPa 0,0 l/m 5,0 km/h SO 11,08 h 2,7 UV-I 419 W/m 9,2 km/h
19.04.2011 11,9 C 64 % 1016,8 hPa 0,0 l/m 1,9 km/h SO 11,42 h 2,8 UV-I 435 W/m 5,2 km/h
20.04.2011 13,1 C 63 % 1016,0 hPa 0,0 l/m 0,9 km/h SO 11,50 h 2,7 UV-I 431 W/m 4,4 km/h
21.04.2011 16,1 C 56 % 1015,0 hPa 0,0 l/m 3,1 km/h S 11,08 h 2,6 UV-I 429 W/m 8,4 km/h
22.04.2011 16,8 C 50 % 1011,9 hPa 0,0 l/m 4,2 km/h SO 10,67 h 2,5 UV-I 413 W/m 11,3 km/h
23.04.2011 17,5 C 49 % 1012,3 hPa 0,0 l/m 5,2 km/h O-SO 11,50 h 2,6 UV-I 425 W/m 11,3 km/h
24.04.2011 16,3 C 48 % 1017,5 hPa 0,0 l/m 3,3 km/h O-SO 11,83 h 2,8 UV-I 439 W/m 8,8 km/h
25.04.2011 12,6 C 63 % 1020,4 hPa 0,0 l/m 2,7 km/h N-NO 11,92 h 2,7 UV-I 434 W/m 5,6 km/h
26.04.2011 13,4 C 70 % 1018,6 hPa 0,0 l/m 4,4 km/h N-NO 6,42 h 2,5 UV-I 358 W/m 12,9 km/h
27.04.2011 11,4 C 92 % 1016,9 hPa 7,2 l/m 1,6 km/h N-NO 1,17 h 1,4 UV-I 155 W/m 4,8 km/h
28.04.2011 12,5 C 89 % 1014,3 hPa 12,6 l/m 3,3 km/h NO 4,83 h 2,2 UV-I 305 W/m 10,5 km/h
29.04.2011 14,5 C 74 % 1012,4 hPa 0,0 l/m 5,3 km/h N-NO 10,83 h 2,5 UV-I 381 W/m 17,3 km/h
30.04.2011 12,0 C 60 % 1011,5 hPa 0,0 l/m 9,1 km/h N-NO 11,42 h 2,9 UV-I 428 W/m 25,4 km/h
Min-Datum 14.04.11 23.04.11 30.04.11 6 Tage 02.04.11 - - - - 02.04.11
Min-Zeit 06:40 13:50 18:10 - 00:20 - - - - 00:20
Minimum -1,3 C 31 % 1009,8 hPa - 0,0 km/h - - - - 0,0 km/h
Max-Datum 23.04.11 02.04.11 06.04.11 03.04.11 02.04.11 - 25.04.11 08.04.11 17.04.11 12.04.11
Max-Zeit 16:10 08:10 13:50 17:30 15:45 - 19:25 13:25 14:30 08:10
Maximum 23,9 C 99 % 1026,9 hPa 14,2 l/m 29,4 km/h
S-SO
- 11,83 h 5,2 UV-I 1055 W/m 53,1 km/h
N-NW
Durchschnitt 11,3 C 72 % 1018,7 hPa #42,8 l/m 4,7 km/h N-NO #216:40 h 2,3 UV-I 322 W/m 11,1 km/h

Durchschnitt Minimum Temp.5,6 C
Durchschnitt Maximum Temp.17,6 C